Aviation Digital Data Service (ADDS)

Output produced by METARs form (0728 UTC 24 March 2019)
found at http://www.aviationweather.gov/metar/data/
 
MNBL 232150Z 2400/2424 07008KT 9999 FEW020 
     TEMPO 2403/2410 09004KT CAVOK
       
MNMG 240400Z 10012KT CAVOK CAVOK 28/14 Q1014 A2994 NOSIG
MNMG 240200Z 2406/2506 11008KT CAVOK 
     TEMPO 2412/2418 06012KT 9999 FEW022
       
MNPC 232150Z 2400/2424 08010KT 9999 SCT019 
     TEMPO 2402/2411 08004KT FEW020